Time;durP1;ratioP1;P1;durP2;ratioP2;P2;SDS_P1;SDS_P2;PMS_P1;PMS_P2;Temp;Humidity;BMP_temperature;BMP_pressure;BME280_temperature;BME280_humidity;BME280_pressure;Samples;Min_cycle;Max_cycle;Signal;HPM_P1;HPM_P2
2023/05/09 04:01:50;;;;;;;7.70;7.00;;;15.90;85.80;;;;;;5479310;22;20503;-75
2023/05/09 04:04:17;;;;;;;8.00;7.33;;;16.00;84.80;;;;;;5032678;28;20983;-76
2023/05/09 04:06:44;;;;;;;7.87;7.27;;;15.90;85.70;;;;;;5032876;28;20440;-75
2023/05/09 04:09:10;;;;;;;7.17;6.27;;;16.10;84.70;;;;;;5032559;28;20996;-76
2023/05/09 04:11:37;;;;;;;7.40;6.80;;;16.20;84.10;;;;;;5032738;28;20991;-76
2023/05/09 04:14:05;;;;;;;7.33;6.73;;;16.20;84.00;;;;;;5032849;28;20517;-75
2023/05/09 04:16:32;;;;;;;7.30;6.70;;;16.20;84.10;;;;;;5033315;28;20479;-76
2023/05/09 04:19:00;;;;;;;7.37;6.80;;;16.20;84.30;;;;;;5032848;28;20447;-76
2023/05/09 04:21:27;;;;;;;7.37;6.53;;;16.20;84.20;;;;;;5032744;28;20463;-76
2023/05/09 04:23:53;;;;;;;7.57;6.97;;;16.20;84.00;;;;;;5032779;28;20451;-76
2023/05/09 04:26:21;;;;;;;7.87;7.23;;;16.20;83.80;;;;;;5032783;28;20451;-76
2023/05/09 04:28:48;;;;;;;7.10;6.50;;;16.30;83.50;;;;;;5032813;28;20561;-76
2023/05/09 04:31:14;;;;;;;7.60;7.00;;;16.20;84.30;;;;;;5032970;28;20471;-76
2023/05/09 04:33:41;;;;;;;6.87;6.37;;;16.20;84.30;;;;;;5032745;28;20451;-76
2023/05/09 04:36:09;;;;;;;7.00;6.30;;;16.10;84.80;;;;;;5032662;28;20537;-76
2023/05/09 04:38:36;;;;;;;7.10;6.50;;;16.10;85.20;;;;;;5032453;28;20998;-76
2023/05/09 04:41:02;;;;;;;7.30;6.70;;;16.20;84.90;;;;;;5032533;28;20463;-77
2023/05/09 04:43:31;;;;;;;6.70;6.10;;;16.30;84.40;;;;;;5032656;28;20509;-76
2023/05/09 04:45:57;;;;;;;7.30;6.70;;;16.40;84.30;;;;;;5032689;28;20823;-76
2023/05/09 04:48:24;;;;;;;5.60;5.10;;;16.60;84.10;;;;;;5035090;28;20953;-76
2023/05/09 04:50:51;;;;;;;6.23;5.73;;;16.60;84.00;;;;;;5035765;28;21040;-73
2023/05/09 04:53:19;;;;;;;6.27;5.77;;;16.60;83.90;;;;;;5036825;28;20482;-75
2023/05/09 04:55:45;;;;;;;5.70;5.23;;;16.40;84.10;;;;;;5035651;28;20486;-76
2023/05/09 04:58:12;;;;;;;6.00;5.50;;;16.30;84.60;;;;;;5035913;28;20635;-76
2023/05/09 05:00:39;;;;;;;6.20;5.70;;;16.30;84.90;;;;;;5035674;28;20440;-77
2023/05/09 05:03:06;;;;;;;6.07;5.57;;;16.20;85.70;;;;;;5035902;28;20789;-76
2023/05/09 05:05:32;;;;;;;5.80;5.40;;;16.20;85.40;;;;;;5035768;28;20536;-76
2023/05/09 05:07:59;;;;;;;6.37;5.87;;;16.10;86.00;;;;;;5035756;28;20456;-76
2023/05/09 05:10:27;;;;;;;6.13;5.63;;;16.10;86.10;;;;;;5035257;28;20940;-77
2023/05/09 05:12:53;;;;;;;6.17;5.67;;;15.90;86.00;;;;;;5035589;28;20452;-76
2023/05/09 05:15:20;;;;;;;6.03;5.53;;;15.70;87.20;;;;;;5035209;28;21050;-76
2023/05/09 05:17:47;;;;;;;6.40;5.90;;;15.70;87.60;;;;;;5035526;28;20501;-77
2023/05/09 05:20:14;;;;;;;5.80;5.30;;;15.90;87.90;;;;;;5035496;28;20450;-75
2023/05/09 05:22:40;;;;;;;6.00;5.50;;;16.20;86.60;;;;;;5035434;28;20468;-76
2023/05/09 05:25:08;;;;;;;5.63;5.10;;;16.20;86.20;;;;;;5035105;28;21014;-75
2023/05/09 05:27:36;;;;;;;5.23;4.23;;;16.40;86.20;;;;;;5035450;28;20538;-76
2023/05/09 05:30:03;;;;;;;5.30;4.80;;;16.60;85.20;;;;;;5036208;28;20447;-76
2023/05/09 05:32:30;;;;;;;5.50;5.00;;;16.20;86.00;;;;;;5035232;28;20467;-77
2023/05/09 05:34:57;;;;;;;5.47;4.97;;;16.00;87.10;;;;;;5035310;28;20440;-76
2023/05/09 05:37:23;;;;;;;5.57;5.17;;;15.90;87.40;;;;;;5035274;28;20483;-76
2023/05/09 05:39:50;;;;;;;5.60;5.10;;;15.80;88.10;;;;;;5035474;28;20509;-77
2023/05/09 05:42:17;;;;;;;5.20;4.80;;;15.70;88.50;;;;;;5035089;28;20546;-76
2023/05/09 05:44:45;;;;;;;4.60;4.20;;;15.80;88.50;;;;;;5035304;28;20448;-76
2023/05/09 05:47:11;;;;;;;5.10;4.70;;;16.00;87.50;;;;;;5035040;28;20440;-76
2023/05/09 05:49:38;;;;;;;4.87;4.47;;;16.00;87.50;;;;;;5034954;28;20443;-76
2023/05/09 05:52:05;;;;;;;4.87;4.47;;;16.20;87.30;;;;;;5034833;28;20464;-77
2023/05/09 05:54:31;;;;;;;4.37;4.00;;;16.30;86.80;;;;;;5034860;28;20497;-77
2023/05/09 05:56:58;;;;;;;5.27;4.87;;;16.60;86.30;;;;;;5034704;28;20475;-76
2023/05/09 05:59:25;;;;;;;4.40;4.00;;;16.80;85.70;;;;;;5034532;28;20501;-77
2023/05/09 06:01:53;;;;;;;5.07;4.57;;;16.90;85.40;;;;;;5034499;28;20510;-77
2023/05/09 06:04:19;;;;;;;4.50;3.87;;;17.10;84.90;;;;;;5034746;28;20443;-76
2023/05/09 06:06:46;;;;;;;4.17;3.77;;;17.30;84.00;;;;;;5035152;28;20478;-77
2023/05/09 06:09:13;;;;;;;4.03;3.63;;;17.50;83.40;;;;;;5034571;28;20475;-77
2023/05/09 06:11:39;;;;;;;4.03;3.70;;;17.50;82.70;;;;;;5034496;28;20467;-77
2023/05/09 06:14:06;;;;;;;4.37;3.97;;;17.60;83.60;;;;;;5034500;28;20506;-77
2023/05/09 06:16:33;;;;;;;4.60;4.20;;;17.80;82.40;;;;;;5034474;28;20480;-76
2023/05/09 06:19:01;;;;;;;5.97;5.43;;;18.00;82.10;;;;;;5034379;28;20451;-76
2023/05/09 06:21:27;;;;;;;5.83;5.33;;;17.90;80.50;;;;;;5034269;28;20472;-76
2023/05/09 06:23:54;;;;;;;6.00;5.50;;;17.90;81.90;;;;;;5034263;28;20796;-77
2023/05/09 06:26:21;;;;;;;6.50;6.00;;;17.80;81.70;;;;;;5034990;28;20538;-76
2023/05/09 06:28:48;;;;;;;6.27;5.77;;;17.80;82.30;;;;;;5034233;28;20452;-76
2023/05/09 06:31:15;;;;;;;5.40;4.90;;;17.90;81.60;;;;;;5034057;28;20471;-76
2023/05/09 06:33:41;;;;;;;5.57;5.13;;;17.90;80.90;;;;;;5034070;28;20509;-77
2023/05/09 06:36:10;;;;;;;6.13;5.63;;;17.60;82.20;;;;;;5033993;28;20541;-76
2023/05/09 06:38:37;;;;;;;6.33;5.83;;;17.20;83.60;;;;;;5033695;28;20976;-77
2023/05/09 06:41:04;;;;;;;6.40;5.80;;;17.50;83.10;;;;;;5033590;28;20987;-76
2023/05/09 06:43:30;;;;;;;6.23;5.73;;;17.50;81.90;;;;;;5033960;28;20459;-76
2023/05/09 06:45:57;;;;;;;7.77;7.07;;;17.20;82.50;;;;;;5033904;28;20498;-75
2023/05/09 06:48:24;;;;;;;6.77;6.20;;;17.10;83.00;;;;;;5033903;28;20501;-76
2023/05/09 06:50:50;;;;;;;7.17;6.57;;;17.30;81.70;;;;;;5033780;28;20463;-77
2023/05/09 06:53:18;;;;;;;7.23;6.60;;;17.10;82.80;;;;;;5033785;28;20517;-76
2023/05/09 06:55:45;;;;;;;6.33;5.83;;;17.30;81.90;;;;;;5033374;28;20995;-76
2023/05/09 06:58:12;;;;;;;7.10;6.50;;;17.40;82.00;;;;;;5033758;28;20506;-76
2023/05/09 07:00:39;;;;;;;7.63;6.97;;;17.60;80.70;;;;;;5033487;28;20482;-77
2023/05/09 07:03:07;;;;;;;6.97;6.37;;;17.40;81.00;;;;;;5033647;28;20431;-76
2023/05/09 07:05:33;;;;;;;7.00;6.40;;;17.50;80.70;;;;;;5033608;28;20478;-76
2023/05/09 07:08:00;;;;;;;6.30;5.80;;;17.80;80.60;;;;;;5033544;28;20459;-76
2023/05/09 07:10:28;;;;;;;6.27;5.77;;;18.20;80.50;;;;;;5032840;28;20474;-78
2023/05/09 07:12:55;;;;;;;6.57;6.07;;;18.60;78.40;;;;;;5033440;28;20447;-76
2023/05/09 07:15:21;;;;;;;5.97;5.43;;;18.60;77.50;;;;;;5033445;28;20455;-76
2023/05/09 07:17:48;;;;;;;6.93;6.43;;;18.90;77.50;;;;;;5033340;28;20487;-76
2023/05/09 07:20:15;;;;;;;7.33;6.73;;;18.90;77.20;;;;;;5033044;28;20878;-76
2023/05/09 07:22:41;;;;;;;7.00;6.40;;;18.90;77.70;;;;;;5033028;28;21045;-76
2023/05/09 07:25:09;;;;;;;7.20;6.70;;;19.00;76.10;;;;;;5033270;28;20452;-76
2023/05/09 07:27:37;;;;;;;7.10;6.57;;;19.00;77.30;;;;;;5033300;28;20443;-76
2023/05/09 07:30:05;;;;;;;7.00;6.40;;;19.10;78.00;;;;;;5033262;28;20501;-76
2023/05/09 07:32:31;;;;;;;7.47;6.87;;;19.20;77.60;;;;;;5033179;28;20467;-76
2023/05/09 07:34:58;;;;;;;7.30;6.70;;;19.00;76.50;;;;;;5033243;28;20518;-76
2023/05/09 07:37:25;;;;;;;7.17;6.57;;;19.00;77.50;;;;;;5033152;28;20549;-76
2023/05/09 07:39:52;;;;;;;7.07;6.53;;;19.10;76.70;;;;;;5033204;28;20627;-75
2023/05/09 07:42:18;;;;;;;6.63;6.13;;;19.10;75.60;;;;;;5033125;28;20517;-76
2023/05/09 07:44:46;;;;;;;7.77;7.07;;;19.00;76.30;;;;;;5033113;28;20459;-76
2023/05/09 07:47:13;;;;;;;7.80;7.17;;;19.20;77.00;;;;;;5033133;28;20598;-76
2023/05/09 07:49:42;;;;;;;7.43;6.83;;;19.30;76.20;;;;;;5033105;28;20447;-76
2023/05/09 07:52:08;;;;;;;7.43;6.77;;;19.50;76.00;;;;;;5033261;28;20503;-76
2023/05/09 07:54:35;;;;;;;8.13;7.53;;;19.40;77.20;;;;;;5032731;28;20940;-76
2023/05/09 07:57:02;;;;;;;7.47;6.87;;;19.40;75.40;;;;;;5033044;28;20533;-76
2023/05/09 07:59:28;;;;;;;7.40;6.80;;;19.40;77.40;;;;;;5033031;28;20447;-76
2023/05/09 08:01:56;;;;;;;7.80;6.43;;;19.70;76.30;;;;;;5032737;28;20530;-76
2023/05/09 08:04:23;;;;;;;7.73;7.03;;;20.00;76.40;;;;;;5032948;28;20447;-76
2023/05/09 08:06:49;;;;;;;8.03;7.23;;;20.00;75.00;;;;;;5032962;28;20855;-76
2023/05/09 08:09:17;;;;;;;7.20;6.63;;;19.70;76.30;;;;;;5032960;28;20455;-76
2023/05/09 08:11:44;;;;;;;6.60;6.00;;;19.70;76.90;;;;;;5032834;28;20559;-76
2023/05/09 08:14:11;;;;;;;6.60;6.10;;;19.70;76.80;;;;;;5032893;28;20458;-76
2023/05/09 08:16:37;;;;;;;6.47;5.97;;;19.60;75.80;;;;;;5032788;28;20479;-76
2023/05/09 08:19:05;;;;;;;6.73;6.13;;;19.70;76.00;;;;;;5032838;28;20510;-76
2023/05/09 08:21:32;;;;;;;6.37;5.87;;;19.90;74.60;;;;;;5034456;28;20467;-76
2023/05/09 08:24:00;;;;;;;7.03;6.53;;;19.70;74.60;;;;;;5036603;28;20518;-76
2023/05/09 08:26:27;;;;;;;5.93;5.43;;;19.80;76.60;;;;;;5036614;28;20474;-76
2023/05/09 08:28:53;;;;;;;6.20;5.60;;;20.20;75.30;;;;;;5036203;28;20944;-76
2023/05/09 08:31:20;;;;;;;6.53;5.93;;;19.90;74.90;;;;;;5036448;28;20554;-77
2023/05/09 08:33:47;;;;;;;6.07;5.60;;;19.80;75.10;;;;;;5036380;28;20451;-76
2023/05/09 08:36:15;;;;;;;5.60;5.10;;;19.90;75.10;;;;;;5035990;28;20877;-76
2023/05/09 08:38:41;;;;;;;6.70;6.10;;;20.20;74.90;;;;;;5036064;28;21005;-77
2023/05/09 08:41:08;;;;;;;6.13;5.63;;;20.10;74.40;;;;;;5035894;28;20471;-76
2023/05/09 08:43:35;;;;;;;5.80;5.30;;;19.90;74.50;;;;;;5036216;28;20444;-76
2023/05/09 08:46:07;;;;;;;5.70;5.30;;;19.50;75.40;;;;;;5036162;28;20451;-76
2023/05/09 08:48:36;;;;;;;5.50;5.10;;;19.70;75.80;;;;;;5036201;28;20514;-76
2023/05/09 08:51:03;;;;;;;4.90;4.50;;;19.90;76.50;;;;;;5036098;28;20474;-76
2023/05/09 08:53:32;;;;;;;2.63;2.03;;;19.70;76.40;;;;;;5035975;28;20948;-77
2023/05/09 08:55:59;;;;;;;3.10;2.63;;;19.90;74.70;;;;;;5036054;28;20483;-76
2023/05/09 08:58:26;;;;;;;3.23;2.93;;;20.10;75.90;;;;;;5035885;28;20479;-76
2023/05/09 09:00:54;;;;;;;2.87;2.67;;;20.10;74.70;;;;;;5035443;28;20479;-75
2023/05/09 09:03:21;;;;;;;3.10;2.40;;;19.80;75.00;;;;;;5035902;28;20447;-76
2023/05/09 09:05:48;;;;;;;3.53;3.23;;;19.90;75.50;;;;;;5035523;28;20940;-76
2023/05/09 09:08:16;;;;;;;2.70;2.40;;;20.00;74.70;;;;;;5035806;28;20444;-77
2023/05/09 09:10:46;;;;;;;2.70;2.50;;;20.20;73.90;;;;;;5035638;28;20468;-77
2023/05/09 09:13:13;;;;;;;3.97;3.03;;;20.20;72.60;;;;;;5035722;28;20479;-77
2023/05/09 09:15:42;;;;;;;3.13;2.83;;;19.80;74.50;;;;;;5035965;28;20447;-76
2023/05/09 09:18:14;;;;;;;3.20;2.80;;;19.70;74.50;;;;;;5035523;28;20483;-77
2023/05/09 09:20:46;;;;;;;3.30;3.00;;;19.70;75.60;;;;;;5035562;28;20436;-77
2023/05/09 09:23:16;;;;;;;4.30;2.90;;;19.90;76.00;;;;;;5035230;28;20862;-76
2023/05/09 09:25:46;;;;;;;3.40;2.90;;;20.20;74.70;;;;;;5035530;28;20444;-77
2023/05/09 09:28:12;;;;;;;4.20;3.80;;;20.20;73.70;;;;;;5035129;28;20794;-76
2023/05/09 09:30:44;;;;;;;4.07;2.80;;;20.30;74.60;;;;;;5035257;28;20444;-77
2023/05/09 09:33:19;;;;;;;2.70;2.40;;;20.40;74.40;;;;;;5034793;28;20432;-77
2023/05/09 09:35:47;;;;;;;3.93;3.60;;;20.50;72.70;;;;;;5035346;28;20439;-77
2023/05/09 09:38:14;;;;;;;3.60;3.30;;;20.40;72.70;;;;;;5035173;28;20491;-76
2023/05/09 09:40:40;;;;;;;4.00;3.47;;;20.40;73.70;;;;;;5035166;28;20497;-77
2023/05/09 09:43:09;;;;;;;3.33;3.03;;;20.30;75.10;;;;;;5035155;28;20444;-76
2023/05/09 09:45:37;;;;;;;2.70;2.30;;;20.30;74.30;;;;;;5035379;28;20483;-76
2023/05/09 09:48:06;;;;;;;2.90;2.60;;;20.50;73.50;;;;;;5035082;28;20452;-77
2023/05/09 09:50:33;;;;;;;3.10;2.80;;;20.50;73.30;;;;;;5034962;28;20483;-77
2023/05/09 09:53:00;;;;;;;3.40;3.10;;;20.40;73.10;;;;;;5034968;28;20443;-77
2023/05/09 09:55:27;;;;;;;3.30;2.53;;;20.40;73.50;;;;;;5034965;28;20510;-76
2023/05/09 09:57:55;;;;;;;3.00;2.70;;;20.30;73.90;;;;;;5035110;28;20876;-76
2023/05/09 10:00:27;;;;;;;5.00;2.37;;;20.50;72.90;;;;;;5034854;28;20455;-78
2023/05/09 10:02:56;;;;;;;2.57;2.27;;;20.70;71.90;;;;;;5035145;28;20785;-77
2023/05/09 10:05:24;;;;;;;3.17;2.87;;;20.80;73.00;;;;;;5034455;28;21014;-76
2023/05/09 10:07:54;;;;;;;3.50;3.20;;;20.80;73.30;;;;;;5034711;28;20451;-77
2023/05/09 10:10:21;;;;;;;4.00;3.70;;;20.90;72.40;;;;;;5034632;28;20497;-76
2023/05/09 10:12:48;;;;;;;4.07;3.77;;;20.90;71.80;;;;;;5034566;28;20459;-77
2023/05/09 10:15:19;;;;;;;4.50;4.10;;;20.40;73.80;;;;;;5035116;28;20443;-77
2023/05/09 10:17:48;;;;;;;4.73;3.70;;;20.20;74.60;;;;;;5035018;28;20478;-78
2023/05/09 10:20:17;;;;;;;4.97;4.57;;;20.50;74.80;;;;;;5034251;28;20866;-77
2023/05/09 10:22:44;;;;;;;4.20;3.33;;;20.70;72.20;;;;;;5034296;28;20471;-77
2023/05/09 10:25:17;;;;;;;4.10;3.80;;;20.60;72.10;;;;;;5034271;28;20452;-77
2023/05/09 10:27:46;;;;;;;2.90;2.50;;;20.90;70.40;;;;;;5034322;28;20440;-77
2023/05/09 10:30:17;;;;;;;3.90;3.60;;;21.20;71.40;;;;;;5034258;28;20443;-77
2023/05/09 10:32:51;;;;;;;3.43;3.13;;;21.00;70.30;;;;;;5034280;28;20917;-77
2023/05/09 10:35:22;;;;;;;3.83;3.07;;;20.90;72.00;;;;;;5034249;28;20431;-77
2023/05/09 10:37:49;;;;;;;3.67;3.37;;;21.10;70.90;;;;;;5034081;28;20490;-77
2023/05/09 10:40:19;;;;;;;3.73;3.43;;;21.10;69.30;;;;;;5034044;28;20853;-76
2023/05/09 10:42:46;;;;;;;3.60;3.10;;;21.00;70.40;;;;;;5033911;28;20511;-76
2023/05/09 10:45:12;;;;;;;4.30;3.90;;;20.80;71.70;;;;;;5032747;28;21010;-77
2023/05/09 10:47:40;;;;;;;3.90;3.50;;;20.60;72.60;;;;;;5033941;28;20446;-77
2023/05/09 10:50:11;;;;;;;4.50;4.10;;;20.50;72.10;;;;;;5033866;28;20451;-77
2023/05/09 10:53:05;;;;;;;3.67;3.37;;;20.70;72.80;;;;;;5033890;28;20475;-77
2023/05/09 10:55:37;;;;;;;4.17;3.80;;;21.00;71.70;;;;;;5034089;28;20847;-77
2023/05/09 10:58:19;;;;;;;3.40;2.90;;;21.10;71.10;;;;;;5033841;28;20468;-77
2023/05/09 11:00:47;;;;;;;2.73;2.20;;;21.40;68.80;;;;;;5033457;28;20566;-77
2023/05/09 11:03:13;;;;;;;2.87;2.57;;;21.50;69.60;;;;;;5033700;28;20436;-77
2023/05/09 11:05:41;;;;;;;2.20;1.90;;;21.40;69.20;;;;;;5033658;28;20478;-77
2023/05/09 11:08:22;;;;;;;2.60;2.23;;;21.30;68.50;;;;;;5033599;28;20937;-76
2023/05/09 11:10:49;;;;;;;2.40;2.07;;;21.60;69.60;;;;;;5033484;28;20475;-77
2023/05/09 11:13:18;;;;;;;2.10;1.87;;;21.80;68.20;;;;;;5033493;28;20458;-76
2023/05/09 11:16:04;;;;;;;2.73;2.03;;;21.90;68.70;;;;;;5033530;28;20543;-76
2023/05/09 11:18:32;;;;;;;2.63;1.90;;;21.70;68.40;;;;;;5033389;28;20503;-77
2023/05/09 11:21:08;;;;;;;2.23;1.63;;;21.80;68.40;;;;;;5033324;28;20474;-76
2023/05/09 11:23:35;;;;;;;2.10;1.60;;;21.80;67.70;;;;;;5033473;28;20795;-77
2023/05/09 11:26:06;;;;;;;2.23;1.20;;;21.70;66.70;;;;;;5033619;28;20444;-76
2023/05/09 11:28:34;;;;;;;1.73;1.17;;;21.80;65.70;;;;;;5033343;28;20450;-76
2023/05/09 11:31:11;;;;;;;1.90;1.17;;;21.70;66.20;;;;;;5033303;28;20495;-76
2023/05/09 11:33:38;;;;;;;1.70;1.00;;;21.80;66.30;;;;;;5033320;28;20436;-76
2023/05/09 11:36:23;;;;;;;2.50;1.53;;;21.70;66.50;;;;;;5033583;28;20474;-76
2023/05/09 11:39:00;;;;;;;2.10;1.23;;;21.90;66.60;;;;;;5033123;28;20467;-76
2023/05/09 11:41:27;;;;;;;2.03;1.60;;;22.10;65.10;;;;;;5033232;28;20551;-76
2023/05/09 11:43:58;;;;;;;1.80;1.13;;;22.40;67.20;;;;;;5032929;28;20948;-76
2023/05/09 11:46:25;;;;;;;1.90;1.30;;;22.20;65.70;;;;;;5032928;28;20979;-76
2023/05/09 11:48:51;;;;;;;2.00;1.00;;;22.00;65.30;;;;;;5033050;28;20451;-76
2023/05/09 11:51:19;;;;;;;2.07;1.20;;;22.30;65.10;;;;;;5033465;28;20499;-76
2023/05/09 11:53:50;;;;;;;1.90;1.20;;;22.30;65.20;;;;;;5033014;28;20868;-76
2023/05/09 11:56:17;;;;;;;1.77;1.10;;;22.00;65.50;;;;;;5034474;28;20532;-76
2023/05/09 11:58:45;;;;;;;1.80;1.20;;;21.70;65.40;;;;;;5036980;28;20529;-77
2023/05/09 12:01:12;;;;;;;1.80;1.27;;;21.80;65.60;;;;;;5036690;28;20479;-77
2023/05/09 12:03:42;;;;;;;1.70;1.07;;;22.10;66.80;;;;;;5036985;28;20458;-76
2023/05/09 12:06:13;;;;;;;1.73;1.03;;;22.10;65.90;;;;;;5037169;28;20427;-76
2023/05/09 12:08:41;;;;;;;1.60;0.90;;;22.00;65.90;;;;;;5036826;28;20424;-75
2023/05/09 12:11:08;;;;;;;1.80;1.13;;;21.90;64.50;;;;;;5036398;28;20984;-76
2023/05/09 12:13:35;;;;;;;3.47;1.37;;;22.00;65.10;;;;;;5036755;28;20554;-76
2023/05/09 12:16:02;;;;;;;1.90;1.10;;;22.10;66.00;;;;;;5036423;28;20941;-76
2023/05/09 12:18:29;;;;;;;1.90;1.00;;;22.20;64.60;;;;;;5036314;28;20479;-77
2023/05/09 12:44:30;;;;;;;1.83;1.00;;;22.30;65.50;;;;;;5036653;28;20379;-77
2023/05/09 12:46:59;;;;;;;2.10;1.40;;;22.20;65.20;;;;;;5036058;28;20497;-77
2023/05/09 12:49:26;;;;;;;2.30;1.40;;;22.00;67.40;;;;;;5036089;28;20458;-76
2023/05/09 12:51:54;;;;;;;2.60;1.40;;;22.20;66.70;;;;;;5035972;28;20554;-77
2023/05/09 12:54:22;;;;;;;1.97;1.40;;;22.20;66.30;;;;;;5036027;28;20447;-78
2023/05/09 12:56:50;;;;;;;1.90;1.30;;;22.50;66.80;;;;;;5035685;28;20455;-76
2023/05/09 12:59:20;;;;;;;2.07;1.50;;;22.50;65.70;;;;;;5035677;28;20858;-76
2023/05/09 13:01:54;;;;;;;1.80;1.40;;;22.50;65.20;;;;;;5035680;28;20491;-76
2023/05/09 13:04:21;;;;;;;2.00;1.37;;;22.50;67.00;;;;;;5035955;28;20438;-76
2023/05/09 13:06:50;;;;;;;1.77;1.10;;;22.30;66.40;;;;;;5035800;28;20921;-77
2023/05/09 13:09:17;;;;;;;4.10;1.53;;;22.20;67.30;;;;;;5035324;28;20482;-77
2023/05/09 13:11:44;;;;;;;2.60;1.23;;;22.20;67.10;;;;;;5035708;28;20510;-77
2023/05/09 13:14:11;;;;;;;2.17;1.10;;;22.40;65.80;;;;;;5035868;28;20494;-77
2023/05/09 13:16:37;;;;;;;1.60;1.00;;;22.40;66.60;;;;;;5035600;28;20448;-76
2023/05/09 13:19:05;;;;;;;1.90;1.07;;;22.30;64.00;;;;;;5035400;28;20476;-76
2023/05/09 13:21:32;;;;;;;2.67;1.57;;;22.20;65.20;;;;;;5035357;28;20471;-76
2023/05/09 13:23:59;;;;;;;1.80;1.10;;;22.40;65.40;;;;;;5035616;28;20447;-77
2023/05/09 13:26:26;;;;;;;1.83;1.20;;;22.30;64.60;;;;;;5035732;28;20447;-77
2023/05/09 13:28:53;;;;;;;4.00;1.53;;;22.50;65.00;;;;;;5035361;28;20471;-77
2023/05/09 13:31:21;;;;;;;2.83;1.63;;;22.40;65.80;;;;;;5035299;28;20463;-77
2023/05/09 13:33:48;;;;;;;2.07;1.13;;;22.50;65.60;;;;;;5035592;28;20547;-77
2023/05/09 13:36:16;;;;;;;1.70;1.00;;;22.60;63.60;;;;;;5035098;28;20452;-77
2023/05/09 13:38:44;;;;;;;1.60;0.90;;;22.20;64.60;;;;;;5035255;28;20483;-77
2023/05/09 13:41:11;;;;;;;1.83;1.03;;;22.00;65.60;;;;;;5035299;28;20472;-77
2023/05/09 13:43:39;;;;;;;1.80;1.10;;;22.00;66.30;;;;;;5034986;28;20451;-76
2023/05/09 13:46:06;;;;;;;1.70;1.03;;;22.00;66.50;;;;;;5035005;28;20452;-77
2023/05/09 13:48:32;;;;;;;1.90;1.30;;;22.00;66.40;;;;;;5035136;28;20448;-77
2023/05/09 13:51:00;;;;;;;1.87;1.20;;;22.00;65.20;;;;;;5034844;28;20526;-78
2023/05/09 13:53:28;;;;;;;2.43;1.17;;;21.90;65.50;;;;;;5035299;28;20452;-77
2023/05/09 13:55:54;;;;;;;2.47;1.30;;;21.60;66.70;;;;;;5035321;28;20454;-77
2023/05/09 13:58:21;;;;;;;2.30;1.13;;;21.70;66.90;;;;;;5035125;28;20479;-77
2023/05/09 14:00:48;;;;;;;1.93;1.30;;;21.80;66.70;;;;;;5034774;28;20522;-78
2023/05/09 14:03:14;;;;;;;1.87;1.27;;;21.90;66.10;;;;;;5035053;28;20440;-77
2023/05/09 14:05:41;;;;;;;1.93;1.30;;;21.90;65.70;;;;;;5035013;28;20447;-77
2023/05/09 14:08:08;;;;;;;2.00;1.40;;;22.00;67.20;;;;;;5035088;28;20534;-77
2023/05/09 14:10:36;;;;;;;1.80;1.20;;;21.70;68.00;;;;;;5035078;28;20454;-76
2023/05/09 14:13:03;;;;;;;2.47;1.60;;;21.50;68.70;;;;;;5035476;28;20507;-77
2023/05/09 14:15:29;;;;;;;2.43;1.30;;;21.20;69.80;;;;;;5034972;28;20448;-76
2023/05/09 14:17:56;;;;;;;2.00;1.17;;;21.20;70.70;;;;;;5035871;28;20535;-77
2023/05/09 14:20:23;;;;;;;1.90;1.20;;;21.10;71.40;;;;;;5035349;28;20486;-78
2023/05/09 14:22:50;;;;;;;1.77;1.00;;;21.30;70.70;;;;;;5035477;28;20443;-77
2023/05/09 14:25:17;;;;;;;2.03;1.20;;;21.70;71.40;;;;;;5035340;28;20551;-77
2023/05/09 14:27:46;;;;;;;1.70;1.00;;;21.70;68.30;;;;;;5034882;28;20789;-77
2023/05/09 14:30:14;;;;;;;1.60;0.90;;;21.60;66.80;;;;;;5035297;28;20459;-77
2023/05/09 14:32:40;;;;;;;2.93;1.20;;;21.70;65.70;;;;;;5035409;28;20475;-77
2023/05/09 14:35:08;;;;;;;1.60;0.90;;;21.70;68.10;;;;;;5035313;28;20448;-76
2023/05/09 14:37:35;;;;;;;2.57;0.90;;;21.70;67.70;;;;;;5035152;28;20452;-77
2023/05/09 14:40:04;;;;;;;1.60;0.90;;;21.60;68.70;;;;;;5034479;28;20553;-77
2023/05/09 14:42:31;;;;;;;1.60;0.90;;;21.60;68.70;;;;;;5034606;28;20890;-77
2023/05/09 14:44:59;;;;;;;3.30;1.10;;;21.80;68.40;;;;;;5034814;28;20451;-77
2023/05/09 14:47:26;;;;;;;1.80;1.10;;;21.70;68.40;;;;;;5034680;28;20502;-77
2023/05/09 14:49:53;;;;;;;1.57;0.83;;;21.60;69.50;;;;;;5034550;28;20955;-76
2023/05/09 14:52:19;;;;;;;1.80;0.87;;;21.70;68.40;;;;;;5034806;28;20467;-77
2023/05/09 14:54:46;;;;;;;2.50;0.90;;;21.60;66.90;;;;;;5034868;28;20975;-77
2023/05/09 14:57:13;;;;;;;1.70;0.93;;;21.80;68.00;;;;;;5034093;28;20463;-77
2023/05/09 14:59:39;;;;;;;1.67;0.90;;;22.00;66.50;;;;;;5034356;28;20479;-78
2023/05/09 15:02:07;;;;;;;2.63;0.90;;;22.00;66.30;;;;;;5034162;28;20483;-78
2023/05/09 15:04:34;;;;;;;1.60;0.80;;;22.00;65.70;;;;;;5034441;28;20501;-77
2023/05/09 15:07:01;;;;;;;1.70;1.00;;;22.00;65.40;;;;;;5033964;28;20454;-77
2023/05/09 15:09:27;;;;;;;2.43;0.80;;;22.20;65.90;;;;;;5033435;28;20451;-78
2023/05/09 15:11:54;;;;;;;1.70;0.90;;;22.50;65.60;;;;;;5033334;28;20475;-77
2023/05/09 15:14:21;;;;;;;2.10;0.93;;;22.80;64.40;;;;;;5033918;28;20509;-77
2023/05/09 15:16:50;;;;;;;1.70;0.90;;;23.10;61.70;;;;;;5033752;28;20447;-77
2023/05/09 15:19:18;;;;;;;2.23;0.70;;;23.10;61.80;;;;;;5033767;28;20490;-77
2023/05/09 15:21:45;;;;;;;1.70;0.87;;;23.30;62.00;;;;;;5033557;28;20471;-77
2023/05/09 15:24:11;;;;;;;2.00;1.10;;;23.50;62.20;;;;;;5033551;28;20451;-77
2023/05/09 15:26:38;;;;;;;1.70;0.93;;;23.60;61.90;;;;;;5033353;28;20970;-77
2023/05/09 15:29:05;;;;;;;1.80;0.90;;;23.50;61.40;;;;;;5033465;28;20490;-76
2023/05/09 15:31:33;;;;;;;2.07;1.10;;;23.60;62.80;;;;;;5032942;28;20471;-76
2023/05/09 15:34:00;;;;;;;1.70;0.90;;;23.70;63.10;;;;;;5033290;28;20947;-77
2023/05/09 15:36:29;;;;;;;1.60;0.90;;;23.60;62.80;;;;;;5033515;28;20817;-77
2023/05/09 15:38:56;;;;;;;1.70;0.70;;;23.80;63.00;;;;;;5033303;28;20539;-78
2023/05/09 15:41:23;;;;;;;2.43;0.90;;;23.80;61.70;;;;;;5033355;28;20475;-77
2023/05/09 15:43:49;;;;;;;1.90;0.80;;;23.90;62.10;;;;;;5033408;28;20829;-76
2023/05/09 15:46:16;;;;;;;1.90;0.97;;;24.00;61.80;;;;;;5033208;28;20456;-76
2023/05/09 15:48:43;;;;;;;1.83;1.07;;;24.00;62.70;;;;;;5033178;28;20855;-77
2023/05/09 15:51:10;;;;;;;1.70;1.10;;;23.90;62.70;;;;;;5033154;28;20464;-77
2023/05/09 15:53:38;;;;;;;2.03;1.07;;;23.90;62.00;;;;;;5033368;28;20891;-76
2023/05/09 15:56:05;;;;;;;1.77;0.93;;;23.90;63.00;;;;;;5032867;28;20501;-76
2023/05/09 15:58:32;;;;;;;1.60;0.90;;;23.90;63.50;;;;;;5033000;28;20557;-75
2023/05/09 16:00:58;;;;;;;1.70;1.00;;;23.90;62.00;;;;;;5033002;28;20495;-76
2023/05/09 16:03:25;;;;;;;1.90;1.00;;;23.70;62.10;;;;;;5033137;28;20452;-75
2023/05/09 16:05:52;;;;;;;1.60;0.90;;;23.40;62.50;;;;;;5033045;28;20494;-75
2023/05/09 16:08:18;;;;;;;2.10;0.90;;;23.30;63.10;;;;;;5032882;28;20849;-75
2023/05/09 16:10:47;;;;;;;2.53;0.90;;;23.20;63.30;;;;;;5032823;28;21043;-76
2023/05/09 16:13:16;;;;;;;1.50;0.77;;;23.20;63.40;;;;;;5033138;28;20522;-75
2023/05/09 16:15:43;;;;;;;1.80;1.00;;;23.20;63.90;;;;;;5033632;28;20455;-76
2023/05/09 16:18:09;;;;;;;1.50;0.80;;;23.20;64.10;;;;;;5033170;28;20525;-75
2023/05/09 16:20:36;;;;;;;1.60;0.90;;;23.30;64.20;;;;;;5032971;28;20539;-76
2023/05/09 16:23:03;;;;;;;1.83;1.07;;;23.40;64.60;;;;;;5033425;28;20452;-76
2023/05/09 16:25:30;;;;;;;2.73;1.00;;;23.50;64.50;;;;;;5033914;28;20460;-76
2023/05/09 16:27:57;;;;;;;1.60;0.90;;;23.50;64.40;;;;;;5033194;28;20451;-76
2023/05/09 16:30:24;;;;;;;1.90;1.30;;;23.50;64.30;;;;;;5033287;28;20447;-77
2023/05/09 16:32:51;;;;;;;1.70;0.97;;;23.50;64.50;;;;;;5033315;28;20452;-75
2023/05/09 16:35:18;;;;;;;1.87;1.07;;;23.60;65.60;;;;;;5033012;28;20812;-75
2023/05/09 16:37:44;;;;;;;3.17;1.00;;;23.60;66.00;;;;;;5032980;28;20867;-75
2023/05/09 16:40:12;;;;;;;1.90;1.20;;;23.60;64.70;;;;;;5032677;28;21054;-76
2023/05/09 16:42:39;;;;;;;1.70;0.90;;;23.60;65.50;;;;;;5034583;28;20471;-75
2023/05/09 16:45:08;;;;;;;1.77;1.20;;;23.60;65.50;;;;;;5036369;28;20443;-75
2023/05/09 16:47:35;;;;;;;1.60;0.90;;;23.60;65.20;;;;;;5036394;28;20463;-75
2023/05/09 16:50:03;;;;;;;2.10;0.97;;;23.60;65.00;;;;;;5037053;28;20490;-76
2023/05/09 16:52:30;;;;;;;1.77;1.00;;;23.50;65.60;;;;;;5036166;28;20482;-76
2023/05/09 16:54:58;;;;;;;2.00;1.10;;;23.40;65.40;;;;;;5036073;28;20447;-75
2023/05/09 16:57:24;;;;;;;3.00;1.20;;;23.40;65.20;;;;;;5035708;28;20444;-75
2023/05/09 16:59:52;;;;;;;2.00;1.30;;;23.30;65.90;;;;;;5035956;28;20517;-76
2023/05/09 17:02:20;;;;;;;1.97;1.10;;;23.30;66.10;;;;;;5035997;28;21008;-75
2023/05/09 17:04:46;;;;;;;1.70;1.00;;;23.10;66.20;;;;;;5035757;28;20941;-75
2023/05/09 17:07:14;;;;;;;1.80;1.00;;;23.10;66.90;;;;;;5036007;28;20452;-75
2023/05/09 17:09:41;;;;;;;1.90;1.20;;;22.90;67.50;;;;;;5035899;28;20451;-75
2023/05/09 17:12:13;;;;;;;1.60;0.80;;;22.90;67.50;;;;;;5035977;28;20562;-75
2023/05/09 17:14:40;;;;;;;2.50;1.10;;;22.80;67.60;;;;;;5035486;28;20842;-76